createdAt,value
2023-03-26T00:00:00.568Z,9.48
2023-03-26T00:01:05.704Z,9.54
2023-03-26T00:02:07.422Z,9.50
2023-03-26T00:03:10.629Z,9.47
2023-03-26T00:04:12.444Z,9.50
2023-03-26T00:05:14.909Z,9.46
2023-03-26T00:06:16.881Z,9.51
2023-03-26T00:07:18.557Z,9.48
2023-03-26T00:08:20.161Z,9.48
2023-03-26T00:09:21.808Z,9.48
2023-03-26T00:10:23.419Z,9.50
2023-03-26T00:11:27.607Z,9.52
2023-03-26T00:12:29.299Z,9.54
2023-03-26T00:13:32.216Z,9.55
2023-03-26T00:14:35.430Z,9.55
2023-03-26T00:15:37.116Z,9.52
2023-03-26T00:16:38.800Z,9.54
2023-03-26T00:17:40.445Z,9.57
2023-03-26T00:18:42.641Z,9.57
2023-03-26T00:19:44.266Z,9.54
2023-03-26T00:20:45.931Z,9.52
2023-03-26T00:21:48.456Z,9.51
2023-03-26T00:22:51.012Z,9.52
2023-03-26T00:23:53.618Z,9.54
2023-03-26T00:24:56.954Z,9.51
2023-03-26T00:25:58.683Z,9.52
2023-03-26T00:27:01.152Z,9.51
2023-03-26T00:28:03.869Z,9.48
2023-03-26T00:29:07.040Z,9.46
2023-03-26T00:30:09.280Z,9.44
2023-03-26T00:31:12.951Z,9.43
2023-03-26T00:32:14.610Z,9.40
2023-03-26T00:33:21.864Z,9.36
2023-03-26T00:34:25.011Z,9.33
2023-03-26T00:35:26.659Z,9.34
2023-03-26T00:36:28.364Z,9.33
2023-03-26T00:37:30.405Z,9.31
2023-03-26T00:38:33.721Z,9.27
2023-03-26T00:39:39.364Z,9.27
2023-03-26T00:40:44.088Z,9.24
2023-03-26T00:41:45.772Z,9.27
2023-03-26T00:42:47.540Z,9.27
2023-03-26T00:43:50.710Z,9.23
2023-03-26T00:44:57.721Z,9.24
2023-03-26T00:45:59.426Z,9.22
2023-03-26T00:47:01.070Z,9.20
2023-03-26T00:48:02.924Z,9.17
2023-03-26T00:49:04.973Z,9.12
2023-03-26T00:50:08.425Z,9.06
2023-03-26T00:51:10.704Z,9.06
2023-03-26T00:52:12.558Z,9.09
2023-03-26T00:53:14.949Z,9.07
2023-03-26T00:54:16.614Z,9.03
2023-03-26T00:55:18.212Z,8.99
2023-03-26T00:56:19.838Z,8.96
2023-03-26T00:57:35.573Z,8.96
2023-03-26T00:58:37.961Z,9.00
2023-03-26T00:59:40.544Z,8.96
2023-03-26T01:00:57.399Z,8.96
2023-03-26T01:01:59.043Z,8.96
2023-03-26T01:03:01.975Z,9.00
2023-03-26T01:04:34.792Z,8.97
2023-03-26T01:05:46.848Z,8.99
2023-03-26T01:06:48.757Z,8.95
2023-03-26T01:07:50.383Z,8.96
2023-03-26T01:08:54.726Z,8.99
2023-03-26T01:09:58.306Z,8.96
2023-03-26T01:11:03.512Z,8.97
2023-03-26T01:12:06.833Z,8.97
2023-03-26T01:13:08.814Z,8.97
2023-03-26T01:14:13.595Z,8.99
2023-03-26T01:15:15.388Z,8.97
2023-03-26T01:16:29.498Z,8.97
2023-03-26T01:17:34.270Z,8.97
2023-03-26T01:18:41.051Z,8.97
2023-03-26T01:19:45.783Z,8.96
2023-03-26T01:20:49.818Z,8.99
2023-03-26T01:21:51.439Z,8.99
2023-03-26T01:22:54.900Z,9.00
2023-03-26T01:24:01.140Z,8.99
2023-03-26T01:25:03.797Z,9.00
2023-03-26T01:26:21.254Z,9.05
2023-03-26T01:27:54.752Z,9.02
2023-03-26T01:28:57.432Z,9.05
2023-03-26T01:30:13.319Z,9.07
2023-03-26T01:31:29.870Z,9.05
2023-03-26T01:32:48.712Z,9.10
2023-03-26T01:33:54.869Z,9.10
2023-03-26T01:35:12.582Z,9.12
2023-03-26T01:36:21.906Z,9.14
2023-03-26T01:37:27.274Z,9.13
2023-03-26T01:38:37.718Z,9.12
2023-03-26T01:39:49.624Z,9.12
2023-03-26T01:41:06.460Z,9.12
2023-03-26T01:42:11.328Z,9.14
2023-03-26T01:43:27.888Z,9.14
2023-03-26T01:44:41.531Z,9.14
2023-03-26T01:45:43.815Z,9.14
2023-03-26T01:46:45.607Z,9.10
2023-03-26T01:47:47.259Z,9.12
2023-03-26T01:48:48.893Z,9.10
2023-03-26T01:49:50.595Z,9.10
2023-03-26T01:50:56.314Z,9.10
2023-03-26T01:51:58.176Z,9.07
2023-03-26T01:52:59.873Z,9.06
2023-03-26T01:54:02.307Z,9.07
2023-03-26T01:55:04.328Z,9.06
2023-03-26T01:56:10.934Z,9.10
2023-03-26T01:57:15.678Z,9.07
2023-03-26T01:58:28.708Z,9.14
2023-03-26T01:59:42.084Z,9.19
2023-03-26T02:01:08.224Z,9.16
2023-03-26T02:02:28.005Z,9.17
2023-03-26T02:03:38.571Z,9.19
2023-03-26T02:05:13.943Z,9.20
2023-03-26T02:06:22.852Z,9.20
2023-03-26T02:07:38.101Z,9.17
2023-03-26T02:08:59.201Z,9.23
2023-03-26T02:10:30.621Z,9.20
2023-03-26T02:11:35.732Z,9.20
2023-03-26T02:12:37.820Z,9.24
2023-03-26T02:13:42.977Z,9.27
2023-03-26T02:14:44.636Z,9.28
2023-03-26T02:16:07.606Z,9.30
2023-03-26T02:17:10.905Z,9.33
2023-03-26T02:18:13.566Z,9.36
2023-03-26T02:19:21.836Z,9.38
2023-03-26T02:20:23.734Z,9.37
2023-03-26T02:21:26.272Z,9.36
2023-03-26T02:22:30.030Z,9.33
2023-03-26T02:23:35.895Z,9.38
2023-03-26T02:24:38.646Z,9.38
2023-03-26T02:25:42.087Z,9.36
2023-03-26T02:26:43.713Z,9.36
2023-03-26T02:27:45.448Z,9.36
2023-03-26T02:28:47.154Z,9.30
2023-03-26T02:29:50.310Z,9.23
2023-03-26T02:30:52.534Z,9.24
2023-03-26T02:31:54.278Z,9.26
2023-03-26T02:32:59.353Z,9.24
2023-03-26T02:34:01.267Z,9.24
2023-03-26T02:35:03.150Z,9.20
2023-03-26T02:36:06.141Z,9.22
2023-03-26T02:37:08.083Z,9.16
2023-03-26T02:38:10.613Z,9.20
2023-03-26T02:39:14.377Z,9.12
2023-03-26T02:40:17.362Z,9.14
2023-03-26T02:41:18.954Z,9.16
2023-03-26T02:42:20.566Z,9.16
2023-03-26T02:43:22.449Z,9.10
2023-03-26T02:44:24.147Z,9.12
2023-03-26T02:45:25.827Z,9.14
2023-03-26T02:46:27.472Z,9.12
2023-03-26T02:47:29.167Z,9.14
2023-03-26T02:48:31.552Z,9.07
2023-03-26T02:49:34.047Z,9.07
2023-03-26T02:50:36.883Z,9.06
2023-03-26T02:51:38.535Z,9.00
2023-03-26T02:52:40.227Z,9.02
2023-03-26T02:53:41.875Z,9.05
2023-03-26T02:54:43.510Z,9.02
2023-03-26T02:55:45.112Z,9.03
2023-03-26T02:56:46.742Z,8.96
2023-03-26T02:57:48.360Z,8.92
2023-03-26T02:58:50.039Z,8.92
2023-03-26T02:59:52.903Z,8.86
2023-03-26T03:00:55.184Z,8.82
2023-03-26T03:01:56.925Z,8.86
2023-03-26T03:02:58.582Z,8.76
2023-03-26T03:04:01.760Z,8.83
2023-03-26T03:05:05.839Z,8.85
2023-03-26T03:06:09.162Z,8.73
2023-03-26T03:07:14.457Z,8.75
2023-03-26T03:08:18.344Z,8.73
2023-03-26T03:09:20.201Z,8.71
2023-03-26T03:10:22.083Z,8.63
2023-03-26T03:11:25.068Z,8.51
2023-03-26T03:12:26.760Z,8.37
2023-03-26T03:13:28.653Z,8.27
2023-03-26T03:14:31.654Z,8.15
2023-03-26T03:15:33.458Z,7.98
2023-03-26T03:16:35.193Z,7.87
2023-03-26T03:17:36.903Z,7.76
2023-03-26T03:18:38.580Z,7.73
2023-03-26T03:19:40.317Z,7.69
2023-03-26T03:20:41.945Z,7.69
2023-03-26T03:21:43.609Z,7.63
2023-03-26T03:22:45.441Z,7.62
2023-03-26T03:23:47.065Z,7.56
2023-03-26T03:24:48.728Z,7.53
2023-03-26T03:25:52.722Z,7.52
2023-03-26T03:26:56.950Z,7.48
2023-03-26T03:27:58.899Z,7.49
2023-03-26T03:29:00.776Z,7.52
2023-03-26T03:30:02.934Z,7.49
2023-03-26T03:31:05.278Z,7.46
2023-03-26T03:32:06.980Z,7.35
2023-03-26T03:33:08.614Z,7.26
2023-03-26T03:34:10.350Z,7.26
2023-03-26T03:35:11.997Z,7.19
2023-03-26T03:36:20.566Z,7.18
2023-03-26T03:37:24.657Z,7.15
2023-03-26T03:38:26.489Z,7.20
2023-03-26T03:39:28.140Z,7.19
2023-03-26T03:40:29.732Z,7.18
2023-03-26T03:41:31.373Z,7.25
2023-03-26T03:42:33.468Z,7.32
2023-03-26T03:43:35.273Z,7.39
2023-03-26T03:44:36.872Z,7.52
2023-03-26T03:45:38.516Z,7.63
2023-03-26T03:46:40.454Z,7.71
2023-03-26T03:47:42.903Z,7.80
2023-03-26T03:48:49.695Z,7.89
2023-03-26T03:49:51.896Z,7.95
2023-03-26T03:50:54.343Z,7.97
2023-03-26T03:51:55.939Z,8.04
2023-03-26T03:52:59.381Z,8.05
2023-03-26T03:54:01.250Z,8.15
2023-03-26T03:55:03.091Z,8.20
2023-03-26T03:56:10.207Z,8.28
2023-03-26T03:57:12.080Z,8.32
2023-03-26T03:58:14.101Z,8.35
2023-03-26T03:59:15.785Z,8.38
2023-03-26T04:00:17.842Z,8.42
2023-03-26T04:01:22.925Z,8.42
2023-03-26T04:02:30.496Z,8.46
2023-03-26T04:03:38.527Z,8.49
2023-03-26T04:04:40.521Z,8.48
2023-03-26T04:05:43.792Z,8.51
2023-03-26T04:06:45.605Z,8.51
2023-03-26T04:07:47.203Z,8.48
2023-03-26T04:08:48.885Z,8.54
2023-03-26T04:09:50.841Z,8.55
2023-03-26T04:10:52.588Z,8.51
2023-03-26T04:11:54.229Z,8.55
2023-03-26T04:12:55.860Z,8.55
2023-03-26T04:13:57.511Z,8.51
2023-03-26T04:14:59.361Z,8.56
2023-03-26T04:16:01.092Z,8.61
2023-03-26T04:17:05.389Z,8.63
2023-03-26T04:18:10.511Z,8.63
2023-03-26T04:19:14.433Z,8.73
2023-03-26T04:20:16.257Z,8.69
2023-03-26T04:21:17.944Z,8.73
2023-03-26T04:22:19.685Z,8.68
2023-03-26T04:23:22.528Z,8.72
2023-03-26T04:24:24.584Z,8.71
2023-03-26T04:25:30.487Z,8.71
2023-03-26T04:26:32.130Z,8.72
2023-03-26T04:27:35.564Z,8.75
2023-03-26T04:28:55.401Z,8.80
2023-03-26T04:29:58.244Z,8.83
2023-03-26T04:31:01.783Z,8.87
2023-03-26T04:32:06.812Z,8.92
2023-03-26T04:33:09.245Z,9.00
2023-03-26T04:34:18.716Z,9.02
2023-03-26T04:35:20.520Z,9.09
2023-03-26T04:36:29.684Z,9.09
2023-03-26T04:37:34.670Z,9.10
2023-03-26T04:38:49.048Z,9.13
2023-03-26T04:39:50.670Z,9.13
2023-03-26T04:40:52.318Z,9.17
2023-03-26T04:41:54.252Z,9.17
2023-03-26T04:42:58.390Z,9.22
2023-03-26T04:44:02.046Z,9.26
2023-03-26T04:45:05.819Z,9.31
2023-03-26T04:46:07.591Z,9.50
2023-03-26T04:47:09.232Z,9.70
2023-03-26T04:48:14.406Z,9.89
2023-03-26T04:49:16.034Z,10.12
2023-03-26T04:50:17.750Z,10.36
2023-03-26T04:51:21.994Z,10.60
2023-03-26T04:52:23.677Z,10.76
2023-03-26T04:53:25.271Z,10.84
2023-03-26T04:54:26.865Z,10.93
2023-03-26T04:55:38.725Z,11.01
2023-03-26T04:56:58.292Z,11.28
2023-03-26T04:58:00.295Z,11.39
2023-03-26T04:59:02.111Z,11.59
2023-03-26T05:00:12.028Z,11.65
2023-03-26T05:01:13.948Z,11.45
2023-03-26T05:02:15.746Z,11.46
2023-03-26T05:03:17.386Z,11.50
2023-03-26T05:04:19.075Z,11.72
2023-03-26T05:05:20.906Z,11.89
2023-03-26T05:06:22.560Z,11.93
2023-03-26T05:07:24.263Z,12.06
2023-03-26T05:08:26.965Z,12.03
2023-03-26T05:09:28.733Z,11.99
2023-03-26T05:10:30.394Z,11.89
2023-03-26T05:11:32.114Z,11.68
2023-03-26T05:12:33.857Z,11.50
2023-03-26T05:13:35.680Z,11.03
2023-03-26T05:14:37.262Z,10.76
2023-03-26T05:15:38.872Z,10.40
2023-03-26T05:16:41.471Z,9.94
2023-03-26T05:17:43.269Z,9.65
2023-03-26T05:18:44.924Z,9.41
2023-03-26T05:19:47.128Z,9.20
2023-03-26T05:20:48.910Z,9.03
2023-03-26T05:21:50.748Z,8.99
2023-03-26T05:22:52.376Z,8.93
2023-03-26T05:23:54.013Z,8.75
2023-03-26T05:24:56.333Z,8.71
2023-03-26T05:25:57.954Z,8.63
2023-03-26T05:26:59.582Z,8.61
2023-03-26T05:28:01.750Z,8.58
2023-03-26T05:29:03.836Z,8.54
2023-03-26T05:30:06.305Z,8.49
2023-03-26T05:31:08.377Z,8.45
2023-03-26T05:32:10.389Z,8.37
2023-03-26T05:33:12.068Z,8.38
2023-03-26T05:34:13.889Z,8.32
2023-03-26T05:35:17.273Z,8.25
2023-03-26T05:36:19.274Z,8.20
2023-03-26T05:37:24.560Z,8.20
2023-03-26T05:38:27.550Z,8.21
2023-03-26T05:39:29.998Z,8.18
2023-03-26T05:40:31.597Z,8.15
2023-03-26T05:41:33.254Z,8.15
2023-03-26T05:42:34.843Z,8.11
2023-03-26T05:43:36.446Z,8.07
2023-03-26T05:44:38.089Z,8.08
2023-03-26T05:45:39.713Z,8.10
2023-03-26T05:46:41.389Z,8.12
2023-03-26T05:47:43.313Z,8.11
2023-03-26T05:48:45.015Z,8.34
2023-03-26T05:49:47.101Z,8.44
2023-03-26T05:50:49.942Z,8.52
2023-03-26T05:51:52.739Z,8.63
2023-03-26T05:52:55.390Z,9.26
2023-03-26T05:53:57.015Z,9.94
2023-03-26T05:54:58.679Z,10.57
2023-03-26T05:56:00.881Z,11.21
2023-03-26T05:57:02.610Z,11.75
2023-03-26T05:58:04.247Z,12.32
2023-03-26T05:59:06.809Z,12.46
2023-03-26T06:00:12.243Z,12.22
2023-03-26T06:01:17.157Z,12.47
2023-03-26T06:02:19.168Z,12.51
2023-03-26T06:03:23.192Z,12.61
2023-03-26T06:04:25.067Z,12.71
2023-03-26T06:05:26.961Z,12.65
2023-03-26T06:06:28.612Z,12.64
2023-03-26T06:07:31.341Z,12.54
2023-03-26T06:08:33.551Z,12.48
2023-03-26T06:09:35.145Z,12.37
2023-03-26T06:10:39.892Z,12.32
2023-03-26T06:11:41.977Z,12.27
2023-03-26T06:12:43.659Z,12.26
2023-03-26T06:13:45.447Z,12.13
2023-03-26T06:14:47.334Z,12.09
2023-03-26T06:15:48.996Z,11.99
2023-03-26T06:16:50.720Z,12.00
2023-03-26T06:17:52.399Z,12.00
2023-03-26T06:18:56.831Z,11.96
2023-03-26T06:19:59.022Z,11.89
2023-03-26T06:21:00.595Z,11.85
2023-03-26T06:22:02.189Z,11.89
2023-03-26T06:23:03.844Z,11.96
2023-03-26T06:24:05.894Z,12.03
2023-03-26T06:25:07.896Z,12.07
2023-03-26T06:26:09.537Z,12.20
2023-03-26T06:27:11.134Z,12.20
2023-03-26T06:28:12.998Z,12.30
2023-03-26T06:29:14.823Z,12.34
2023-03-26T06:30:16.531Z,12.43
2023-03-26T06:31:19.399Z,12.43
2023-03-26T06:32:21.259Z,12.60
2023-03-26T06:33:24.625Z,12.71
2023-03-26T06:34:26.444Z,12.78
2023-03-26T06:35:29.968Z,12.68
2023-03-26T06:36:31.652Z,12.63
2023-03-26T06:37:33.308Z,12.58
2023-03-26T06:38:34.908Z,12.44
2023-03-26T06:39:36.529Z,12.37
2023-03-26T06:40:38.205Z,12.15
2023-03-26T06:41:40.258Z,11.96
2023-03-26T06:43:09.940Z,11.73
2023-03-26T06:44:04.085Z,11.65
2023-03-26T06:45:06.394Z,11.54
2023-03-26T06:46:08.084Z,11.35
2023-03-26T06:47:09.728Z,11.32
2023-03-26T06:48:11.345Z,11.28
2023-03-26T06:49:12.933Z,11.25
2023-03-26T06:50:15.333Z,11.35
2023-03-26T06:51:16.950Z,11.35
2023-03-26T06:52:18.556Z,11.41
2023-03-26T06:53:20.344Z,11.45
2023-03-26T06:54:21.982Z,11.52
2023-03-26T06:55:24.740Z,11.44
2023-03-26T06:56:26.352Z,11.35
2023-03-26T06:57:28.011Z,11.25
2023-03-26T06:58:30.040Z,11.15
2023-03-26T06:59:31.740Z,11.13
2023-03-26T07:00:34.682Z,11.11
2023-03-26T07:01:36.359Z,11.08
2023-03-26T07:02:38.111Z,11.31
2023-03-26T07:03:39.992Z,11.34
2023-03-26T07:04:41.695Z,11.34
2023-03-26T07:05:43.514Z,11.34
2023-03-26T07:06:46.030Z,11.41
2023-03-26T07:07:47.722Z,11.34
2023-03-26T07:08:49.375Z,11.28
2023-03-26T07:09:51.514Z,11.22
2023-03-26T07:10:53.480Z,11.27
2023-03-26T07:11:55.495Z,11.36
2023-03-26T07:12:57.128Z,11.39
2023-03-26T07:13:59.617Z,11.42
2023-03-26T07:15:02.013Z,11.58
2023-03-26T07:16:03.944Z,11.68
2023-03-26T07:17:05.807Z,11.78
2023-03-26T07:18:07.432Z,11.87
2023-03-26T07:19:09.074Z,11.95
2023-03-26T07:20:11.263Z,12.00
2023-03-26T07:21:13.367Z,11.96
2023-03-26T07:22:19.554Z,12.05
2023-03-26T07:23:21.567Z,12.15
2023-03-26T07:24:23.520Z,12.20
2023-03-26T07:25:25.970Z,12.25
2023-03-26T07:26:42.738Z,12.33
2023-03-26T07:27:56.485Z,12.34
2023-03-26T07:29:09.371Z,12.34
2023-03-26T07:30:41.018Z,12.41
2023-03-26T07:31:45.707Z,12.38
2023-03-26T07:33:02.091Z,12.36
2023-03-26T07:34:31.692Z,12.40
2023-03-26T07:35:43.103Z,12.44
2023-03-26T07:36:52.584Z,12.48
2023-03-26T07:37:56.809Z,12.56
2023-03-26T07:39:00.266Z,12.67
2023-03-26T07:40:22.341Z,12.77
2023-03-26T07:41:39.649Z,12.94
2023-03-26T07:43:01.516Z,12.98
2023-03-26T07:44:12.356Z,12.99
2023-03-26T07:45:20.099Z,13.01
2023-03-26T07:46:27.298Z,13.02
2023-03-26T07:47:30.282Z,12.99
2023-03-26T07:48:42.384Z,12.95
2023-03-26T07:49:44.837Z,13.01
2023-03-26T07:50:47.147Z,12.98
2023-03-26T07:51:49.148Z,13.01
2023-03-26T07:52:51.104Z,13.05
2023-03-26T07:53:53.026Z,13.07
2023-03-26T07:54:54.936Z,13.11
2023-03-26T07:56:16.104Z,13.19
2023-03-26T07:57:50.869Z,13.16
2023-03-26T07:59:14.006Z,13.23
2023-03-26T08:00:19.914Z,13.23
2023-03-26T08:01:28.314Z,13.20
2023-03-26T08:02:29.971Z,13.15
2023-03-26T08:03:36.047Z,13.08
2023-03-26T08:04:46.940Z,12.99
2023-03-26T08:06:06.116Z,12.99
2023-03-26T08:07:07.685Z,12.99
2023-03-26T08:09:01.732Z,13.01
2023-03-26T08:10:39.170Z,13.08
2023-03-26T08:11:47.760Z,13.11
2023-03-26T08:13:07.701Z,13.09
2023-03-26T08:14:30.562Z,13.05
2023-03-26T08:16:00.506Z,13.05
2023-03-26T08:17:08.335Z,13.04
2023-03-26T08:18:35.266Z,13.18
2023-03-26T08:19:58.772Z,13.25
2023-03-26T08:21:17.052Z,13.28
2023-03-26T08:22:34.325Z,13.30
2023-03-26T08:23:50.424Z,13.35
2023-03-26T08:25:29.742Z,13.49
2023-03-26T08:26:41.459Z,13.55
2023-03-26T08:27:48.106Z,13.52
2023-03-26T08:29:03.928Z,13.46
2023-03-26T08:30:18.224Z,13.49
2023-03-26T08:31:19.943Z,13.49
2023-03-26T08:32:22.080Z,13.55
2023-03-26T08:33:25.957Z,13.55
2023-03-26T08:34:27.564Z,13.70
2023-03-26T08:35:29.712Z,13.80
2023-03-26T08:36:31.833Z,13.84
2023-03-26T08:37:33.493Z,13.89
2023-03-26T08:38:35.114Z,13.93
2023-03-26T08:39:38.883Z,13.99
2023-03-26T08:41:08.204Z,14.03
2023-03-26T08:42:19.050Z,14.17
2023-03-26T08:43:39.373Z,14.24
2023-03-26T08:44:55.873Z,14.23
2023-03-26T08:46:34.908Z,14.27
2023-03-26T08:48:10.607Z,14.28
2023-03-26T08:49:34.181Z,14.30
2023-03-26T08:50:44.463Z,14.27
2023-03-26T08:52:04.479Z,14.35
2023-03-26T08:53:39.886Z,14.51
2023-03-26T08:55:19.603Z,14.65
2023-03-26T08:56:32.385Z,14.67
2023-03-26T08:57:42.156Z,14.81
2023-03-26T08:59:20.109Z,14.91
2023-03-26T09:00:37.761Z,15.02
2023-03-26T09:01:57.705Z,15.09
2023-03-26T09:03:14.390Z,15.06
2023-03-26T09:04:19.021Z,15.12
2023-03-26T09:05:26.397Z,15.10
2023-03-26T09:06:49.844Z,15.15
2023-03-26T09:08:30.381Z,15.23
2023-03-26T09:09:53.812Z,15.16
2023-03-26T09:11:04.145Z,15.20
2023-03-26T09:12:33.151Z,15.18
2023-03-26T09:14:02.372Z,15.16
2023-03-26T09:15:22.148Z,15.16
2023-03-26T09:16:45.014Z,15.16
2023-03-26T09:18:05.861Z,15.22
2023-03-26T09:19:25.713Z,15.23
2023-03-26T09:20:39.514Z,15.33
2023-03-26T09:22:02.771Z,15.36
2023-03-26T09:23:24.069Z,15.37
2023-03-26T09:24:34.726Z,15.40
2023-03-26T09:25:42.967Z,15.43
2023-03-26T09:27:31.630Z,15.47
2023-03-26T09:29:10.905Z,15.43
2023-03-26T09:30:27.594Z,15.36
2023-03-26T09:31:57.987Z,15.42
2023-03-26T09:33:07.393Z,15.44
2023-03-26T09:34:18.027Z,15.47
2023-03-26T09:35:46.950Z,15.53
2023-03-26T09:37:02.664Z,15.66
2023-03-26T09:38:25.923Z,15.73
2023-03-26T09:39:39.181Z,15.81
2023-03-26T09:40:44.654Z,15.84
2023-03-26T09:42:09.224Z,15.84
2023-03-26T09:43:48.802Z,15.87
2023-03-26T09:45:13.709Z,15.97
2023-03-26T09:46:33.526Z,16.02
2023-03-26T09:47:50.483Z,15.95
2023-03-26T09:49:17.708Z,15.91
2023-03-26T09:50:29.761Z,15.71
2023-03-26T09:51:49.854Z,15.74
2023-03-26T09:53:18.740Z,15.67
2023-03-26T09:54:35.406Z,15.54
2023-03-26T09:55:59.366Z,15.47
2023-03-26T09:57:36.565Z,15.46
2023-03-26T09:58:42.004Z,15.40
2023-03-26T10:00:11.193Z,15.29
2023-03-26T10:01:25.221Z,15.23
2023-03-26T10:02:49.439Z,15.23
2023-03-26T10:04:01.825Z,15.19
2023-03-26T10:05:28.056Z,15.13
2023-03-26T10:06:42.617Z,15.09
2023-03-26T10:07:50.532Z,15.09
2023-03-26T10:08:54.385Z,15.12
2023-03-26T10:10:04.392Z,15.15
2023-03-26T10:11:20.346Z,15.22
2023-03-26T10:12:28.034Z,15.32
2023-03-26T10:13:35.774Z,15.40
2023-03-26T10:15:14.797Z,15.53
2023-03-26T10:16:52.864Z,15.68
2023-03-26T10:18:27.550Z,15.68
2023-03-26T10:19:49.810Z,15.86
2023-03-26T10:21:19.187Z,15.83
2023-03-26T10:22:27.097Z,15.90
2023-03-26T10:24:19.088Z,15.97
2023-03-26T10:25:43.318Z,15.93
2023-03-26T10:27:15.743Z,15.80
2023-03-26T10:28:51.015Z,15.84
2023-03-26T10:30:14.408Z,15.86
2023-03-26T10:31:42.868Z,15.81
2023-03-26T10:32:51.346Z,15.95
2023-03-26T10:34:28.833Z,15.98
2023-03-26T10:35:40.577Z,16.00
2023-03-26T10:37:01.403Z,16.04
2023-03-26T10:38:29.113Z,16.11
2023-03-26T10:39:49.601Z,16.12
2023-03-26T10:41:32.548Z,16.09
2023-03-26T10:42:40.813Z,16.07
2023-03-26T10:44:01.279Z,16.14
2023-03-26T10:45:46.646Z,16.09
2023-03-26T10:47:11.295Z,16.11
2023-03-26T10:48:25.128Z,16.04
2023-03-26T10:49:53.957Z,16.00
2023-03-26T10:50:58.242Z,16.02
2023-03-26T10:52:02.487Z,16.07
2023-03-26T10:53:20.858Z,16.11
2023-03-26T10:54:58.068Z,16.19
2023-03-26T10:56:03.109Z,16.24
2023-03-26T10:57:33.025Z,16.26
2023-03-26T10:58:48.338Z,16.38
2023-03-26T10:59:54.189Z,16.51
2023-03-26T11:01:06.999Z,16.58
2023-03-26T11:02:31.235Z,16.56
2023-03-26T11:03:51.989Z,16.47
2023-03-26T11:05:26.079Z,16.42
2023-03-26T11:06:58.650Z,16.41
2023-03-26T11:08:06.466Z,16.33
2023-03-26T11:09:26.273Z,16.21
2023-03-26T11:10:42.915Z,16.28
2023-03-26T11:11:49.628Z,16.29
2023-03-26T11:13:03.382Z,16.35
2023-03-26T11:14:24.276Z,16.26
2023-03-26T11:15:40.590Z,16.25
2023-03-26T11:16:54.681Z,16.24
2023-03-26T11:18:23.740Z,16.21
2023-03-26T11:19:28.081Z,16.17
2023-03-26T11:20:41.478Z,16.19
2023-03-26T11:22:03.676Z,16.09
2023-03-26T11:23:22.470Z,16.08
2023-03-26T11:25:06.615Z,16.07
2023-03-26T11:26:17.030Z,16.08
2023-03-26T11:27:44.143Z,16.01
2023-03-26T11:29:05.623Z,16.00
2023-03-26T11:30:32.577Z,16.01
2023-03-26T11:32:03.243Z,16.01
2023-03-26T11:33:06.895Z,16.11
2023-03-26T11:34:13.667Z,16.22
2023-03-26T11:35:39.570Z,16.30
2023-03-26T11:36:46.981Z,16.39
2023-03-26T11:37:52.328Z,16.44
2023-03-26T11:38:54.816Z,16.47
2023-03-26T11:39:56.996Z,16.48
2023-03-26T11:40:59.095Z,16.56
2023-03-26T11:42:11.334Z,16.58
2023-03-26T11:43:13.061Z,16.60
2023-03-26T11:44:41.988Z,16.63
2023-03-26T11:45:46.774Z,16.75
2023-03-26T11:46:49.722Z,16.84
2023-03-26T11:48:09.511Z,17.00
2023-03-26T11:49:12.887Z,17.14
2023-03-26T11:50:22.695Z,17.27
2023-03-26T11:51:34.429Z,17.33
2023-03-26T11:52:36.992Z,17.40
2023-03-26T11:53:38.999Z,17.45
2023-03-26T11:54:40.737Z,17.45
2023-03-26T11:55:46.973Z,17.54
2023-03-26T11:57:05.121Z,17.61
2023-03-26T11:58:16.012Z,17.71
2023-03-26T11:59:27.350Z,17.65
2023-03-26T12:00:29.764Z,17.68
2023-03-26T12:01:59.808Z,17.71
2023-03-26T12:03:01.639Z,17.71
2023-03-26T12:04:07.156Z,17.70
2023-03-26T12:05:26.856Z,17.70
2023-03-26T12:06:29.413Z,17.61
2023-03-26T12:07:33.273Z,17.67
2023-03-26T12:08:38.576Z,17.61
2023-03-26T12:10:17.854Z,17.62
2023-03-26T12:11:30.739Z,17.55
2023-03-26T12:12:36.671Z,17.58
2023-03-26T12:13:51.366Z,17.64
2023-03-26T12:14:52.984Z,17.61
2023-03-26T12:15:59.058Z,17.67
2023-03-26T12:17:06.738Z,17.68
2023-03-26T12:18:25.271Z,17.74
2023-03-26T12:19:29.089Z,17.84
2023-03-26T12:20:32.990Z,17.82
2023-03-26T12:21:48.449Z,17.78
2023-03-26T12:22:52.146Z,17.72
2023-03-26T12:23:57.961Z,17.55
2023-03-26T12:25:19.385Z,17.41
2023-03-26T12:26:30.403Z,17.38
2023-03-26T12:27:33.233Z,17.28
2023-03-26T12:28:35.325Z,17.11
2023-03-26T12:29:37.031Z,17.10
2023-03-26T12:30:39.903Z,16.99
2023-03-26T12:31:42.641Z,16.99
2023-03-26T12:32:46.729Z,17.03
2023-03-26T12:34:04.510Z,17.10
2023-03-26T12:35:07.560Z,17.11
2023-03-26T12:36:28.351Z,17.14
2023-03-26T12:37:40.864Z,17.13
2023-03-26T12:38:43.380Z,17.13
2023-03-26T12:40:09.885Z,17.11
2023-03-26T12:41:06.898Z,17.13
2023-03-26T12:44:46.609Z,17.14
2023-03-26T12:44:49.265Z,17.14
2023-03-26T12:45:13.716Z,17.11
2023-03-26T12:47:56.301Z,17.17
2023-03-26T12:48:04.239Z,17.26
2023-03-26T12:49:07.245Z,17.30
2023-03-26T12:50:14.660Z,17.40
2023-03-26T12:51:41.876Z,17.43
2023-03-26T12:53:18.128Z,17.43
2023-03-26T12:55:12.205Z,17.52
2023-03-26T12:56:27.415Z,17.55
2023-03-26T12:57:38.821Z,17.58
2023-03-26T12:58:56.658Z,17.61
2023-03-26T13:00:09.446Z,17.60
2023-03-26T13:01:36.409Z,17.51
2023-03-26T13:02:45.471Z,17.38
2023-03-26T13:04:26.403Z,17.35
2023-03-26T13:05:31.235Z,17.33
2023-03-26T13:06:59.232Z,17.28
2023-03-26T13:08:40.939Z,17.17
2023-03-26T13:10:04.129Z,17.06
2023-03-26T13:11:26.918Z,17.03
2023-03-26T13:12:28.843Z,16.94
2023-03-26T13:13:38.011Z,16.94
2023-03-26T13:15:17.816Z,16.93
2023-03-26T13:16:38.315Z,16.97
2023-03-26T13:17:57.546Z,17.07
2023-03-26T13:19:08.251Z,17.16
2023-03-26T13:20:21.544Z,17.28
2023-03-26T13:21:35.701Z,17.33
2023-03-26T13:22:50.247Z,17.45
2023-03-26T13:24:13.747Z,17.50
2023-03-26T13:25:24.070Z,17.55
2023-03-26T13:26:31.824Z,17.58
2023-03-26T13:27:51.616Z,17.57
2023-03-26T13:28:56.744Z,17.50
2023-03-26T13:30:13.500Z,17.41
2023-03-26T13:31:34.080Z,17.37
2023-03-26T13:32:58.861Z,17.44
2023-03-26T13:34:16.542Z,17.38
2023-03-26T13:35:43.009Z,17.47
2023-03-26T13:37:04.435Z,17.57
2023-03-26T13:38:10.312Z,17.70
2023-03-26T13:39:35.296Z,17.74
2023-03-26T13:40:58.353Z,17.84
2023-03-26T13:42:22.872Z,17.85
2023-03-26T13:43:36.622Z,17.84
2023-03-26T13:45:05.588Z,17.81
2023-03-26T13:46:39.882Z,17.79
2023-03-26T13:47:45.499Z,17.81
2023-03-26T13:49:02.329Z,17.74
2023-03-26T13:50:10.223Z,17.70
2023-03-26T13:51:29.127Z,17.71
2023-03-26T13:52:38.785Z,17.72
2023-03-26T13:53:43.782Z,17.75
2023-03-26T13:55:22.641Z,17.78
2023-03-26T13:56:28.664Z,17.81
2023-03-26T13:57:35.733Z,17.84
2023-03-26T13:58:47.572Z,17.94
2023-03-26T13:59:58.336Z,17.98
2023-03-26T14:01:20.527Z,17.94
2023-03-26T14:02:27.723Z,17.92
2023-03-26T14:03:50.208Z,17.95
2023-03-26T14:04:57.023Z,17.86
2023-03-26T14:06:01.402Z,17.85
2023-03-26T14:07:43.673Z,17.78
2023-03-26T14:08:47.443Z,17.74
2023-03-26T14:10:15.570Z,17.71
2023-03-26T14:11:21.096Z,17.70
2023-03-26T14:12:51.435Z,17.64
2023-03-26T14:13:56.928Z,17.65
2023-03-26T14:15:02.857Z,17.62
2023-03-26T14:16:17.073Z,17.61
2023-03-26T14:17:40.758Z,17.64
2023-03-26T14:18:52.735Z,17.64
2023-03-26T14:20:16.272Z,17.65
2023-03-26T14:21:51.179Z,17.64
2023-03-26T14:23:11.116Z,17.64
2023-03-26T14:25:03.422Z,17.72
2023-03-26T14:26:37.344Z,17.74
2023-03-26T14:27:52.104Z,17.68
2023-03-26T14:29:12.471Z,17.64
2023-03-26T14:30:38.548Z,17.61
2023-03-26T14:32:02.214Z,17.58
2023-03-26T14:33:26.972Z,17.47
2023-03-26T14:35:07.387Z,17.41
2023-03-26T14:36:18.276Z,17.37
2023-03-26T14:37:52.430Z,17.33
2023-03-26T14:39:05.894Z,17.33
2023-03-26T14:40:16.974Z,17.30
2023-03-26T14:41:30.288Z,17.30
2023-03-26T14:42:56.534Z,17.26
2023-03-26T14:44:04.342Z,17.26
2023-03-26T14:45:21.819Z,17.30
2023-03-26T14:46:44.726Z,17.31
2023-03-26T14:48:14.116Z,17.31
2023-03-26T14:49:34.579Z,17.28
2023-03-26T14:50:47.209Z,17.34
2023-03-26T14:52:18.920Z,17.35
2023-03-26T14:53:30.198Z,17.35
2023-03-26T14:54:34.141Z,17.38
2023-03-26T14:55:54.369Z,17.38
2023-03-26T14:57:44.987Z,17.35
2023-03-26T14:59:05.682Z,17.33
2023-03-26T15:00:35.756Z,17.34
2023-03-26T15:01:52.637Z,17.38
2023-03-26T15:02:57.145Z,17.37
2023-03-26T15:04:17.343Z,17.34
2023-03-26T15:05:44.243Z,17.35
2023-03-26T15:07:08.081Z,17.33
2023-03-26T15:08:18.530Z,17.35
2023-03-26T15:09:57.531Z,17.34
2023-03-26T15:11:24.384Z,17.31
2023-03-26T15:12:41.203Z,17.30
2023-03-26T15:14:12.261Z,17.31